createdAt,value
2022-11-15T00:03:54.523Z,6.20
2022-11-15T00:09:04.887Z,5.70
2022-11-15T00:14:14.926Z,6.40
2022-11-15T00:19:25.401Z,6.33
2022-11-15T00:24:35.927Z,6.03
2022-11-15T00:29:46.374Z,5.60
2022-11-15T00:34:57.401Z,5.83
2022-11-15T00:40:08.893Z,6.00
2022-11-15T00:45:19.002Z,5.67
2022-11-15T00:50:29.505Z,5.73
2022-11-15T00:55:40.105Z,5.90
2022-11-15T01:00:50.590Z,6.20
2022-11-15T01:06:01.723Z,5.97
2022-11-15T01:11:13.272Z,5.77
2022-11-15T01:16:23.604Z,6.50
2022-11-15T01:21:34.050Z,5.63
2022-11-15T01:26:44.451Z,5.60
2022-11-15T01:31:55.089Z,5.87
2022-11-15T01:37:05.445Z,5.53
2022-11-15T01:42:15.786Z,5.73
2022-11-15T01:47:33.974Z,5.80
2022-11-15T01:52:44.764Z,6.03
2022-11-15T01:57:59.076Z,5.87
2022-11-15T02:03:09.753Z,6.33
2022-11-15T02:08:22.992Z,5.70
2022-11-15T02:13:33.538Z,6.00
2022-11-15T02:18:53.174Z,6.07
2022-11-15T02:24:15.546Z,6.13
2022-11-15T02:30:06.892Z,6.17
2022-11-15T02:35:36.045Z,6.20
2022-11-15T02:40:54.863Z,5.73
2022-11-15T02:46:16.007Z,5.40
2022-11-15T02:51:26.657Z,5.43
2022-11-15T02:56:37.713Z,5.60
2022-11-15T03:02:15.652Z,5.10
2022-11-15T03:07:45.514Z,5.07
2022-11-15T03:13:05.162Z,5.00
2022-11-15T03:18:22.511Z,4.50
2022-11-15T03:23:35.017Z,4.77
2022-11-15T03:28:56.585Z,4.90
2022-11-15T03:34:11.983Z,4.40
2022-11-15T03:39:24.454Z,4.57
2022-11-15T03:44:46.553Z,4.70
2022-11-15T03:50:01.819Z,4.50
2022-11-15T03:55:16.721Z,4.90
2022-11-15T04:00:27.332Z,5.07
2022-11-15T04:05:37.814Z,4.40
2022-11-15T04:10:50.523Z,4.40
2022-11-15T04:16:00.833Z,4.87
2022-11-15T04:21:29.712Z,5.00
2022-11-15T04:26:40.074Z,4.60
2022-11-15T04:31:50.417Z,4.47
2022-11-15T04:37:12.641Z,4.60
2022-11-15T04:42:22.815Z,4.43
2022-11-15T04:47:33.448Z,4.23
2022-11-15T04:52:50.783Z,4.20
2022-11-15T04:58:03.070Z,4.20
2022-11-15T05:03:32.480Z,4.30
2022-11-15T05:08:43.468Z,4.23
2022-11-15T05:13:54.279Z,4.47
2022-11-15T05:19:05.083Z,4.30
2022-11-15T05:24:15.433Z,4.33
2022-11-15T05:29:25.591Z,4.40
2022-11-15T05:34:36.120Z,4.60
2022-11-15T05:39:46.508Z,4.57
2022-11-15T05:44:59.316Z,4.17
2022-11-15T05:50:13.722Z,3.47
2022-11-15T05:55:24.030Z,4.13
2022-11-15T06:00:34.495Z,3.67
2022-11-15T06:05:44.462Z,4.17
2022-11-15T06:10:54.677Z,3.77
2022-11-15T06:16:05.394Z,3.73
2022-11-15T06:21:15.505Z,3.90
2022-11-15T06:26:25.668Z,3.20
2022-11-15T06:31:36.109Z,3.13
2022-11-15T06:36:46.190Z,3.47
2022-11-15T06:41:56.504Z,5.23
2022-11-15T06:47:06.655Z,3.47
2022-11-15T06:52:19.449Z,3.07
2022-11-15T06:57:29.441Z,4.30
2022-11-15T07:02:39.574Z,4.23
2022-11-15T07:07:57.500Z,2.90
2022-11-15T07:13:07.812Z,2.63
2022-11-15T07:18:18.058Z,1.70
2022-11-15T07:23:28.734Z,2.00
2022-11-15T07:28:39.209Z,2.30
2022-11-15T07:33:49.950Z,2.40
2022-11-15T07:39:00.151Z,2.43
2022-11-15T07:44:10.385Z,2.10
2022-11-15T07:49:20.636Z,1.70
2022-11-15T07:54:31.214Z,1.67
2022-11-15T07:59:41.367Z,1.80
2022-11-15T08:04:51.564Z,1.50
2022-11-15T08:10:02.244Z,1.33
2022-11-15T08:15:12.530Z,1.30
2022-11-15T08:20:22.778Z,1.70
2022-11-15T08:25:34.333Z,1.50
2022-11-15T08:30:46.438Z,1.90
2022-11-15T08:36:01.170Z,1.40
2022-11-15T08:41:15.506Z,1.60
2022-11-15T08:46:25.851Z,1.20
2022-11-15T08:51:36.134Z,1.03
2022-11-15T08:56:46.555Z,1.20
2022-11-15T09:01:57.080Z,1.10
2022-11-15T09:07:07.713Z,1.23
2022-11-15T09:12:17.981Z,1.10
2022-11-15T09:17:28.324Z,1.20
2022-11-15T09:22:39.697Z,1.73
2022-11-15T09:27:49.864Z,1.60
2022-11-15T09:33:00.012Z,1.50
2022-11-15T09:38:10.571Z,1.60
2022-11-15T09:43:33.205Z,1.43
2022-11-15T09:48:48.456Z,1.20
2022-11-15T09:54:51.589Z,1.17
2022-11-15T09:59:55.620Z,1.20
2022-11-15T10:04:47.798Z,1.50
2022-11-15T10:10:00.184Z,1.20
2022-11-15T10:15:03.256Z,1.60
2022-11-15T10:20:22.041Z,0.87
2022-11-15T10:25:16.932Z,1.07
2022-11-15T10:30:14.487Z,1.00
2022-11-15T10:35:26.921Z,1.10
2022-11-15T10:40:25.447Z,1.20
2022-11-15T10:45:32.109Z,1.00
2022-11-15T10:50:32.995Z,1.13
2022-11-15T10:55:34.181Z,0.97
2022-11-15T11:00:32.998Z,1.27
2022-11-15T11:05:27.792Z,1.20
2022-11-15T11:10:49.632Z,0.70
2022-11-15T11:15:34.675Z,1.07
2022-11-15T11:21:01.873Z,0.97
2022-11-15T11:26:29.801Z,1.20
2022-11-15T11:31:34.874Z,0.70
2022-11-15T11:36:51.393Z,0.70
2022-11-15T11:41:58.178Z,0.70
2022-11-15T11:47:05.047Z,1.17
2022-11-15T11:52:26.679Z,1.00
2022-11-15T11:57:39.273Z,0.60
2022-11-15T12:02:42.315Z,0.80
2022-11-15T12:07:36.930Z,0.80
2022-11-15T12:12:42.387Z,0.83
2022-11-15T12:17:34.140Z,1.00
2022-11-15T12:23:01.755Z,0.93
2022-11-15T12:28:36.133Z,0.80
2022-11-15T12:33:46.691Z,1.17
2022-11-15T12:39:03.772Z,1.23
2022-11-15T12:43:56.543Z,1.13
2022-11-15T12:48:51.732Z,1.20
2022-11-15T12:53:43.559Z,1.20
2022-11-15T12:58:56.885Z,1.20
2022-11-15T13:04:19.655Z,1.00
2022-11-15T13:09:31.248Z,1.07
2022-11-15T13:14:38.137Z,1.30
2022-11-15T13:19:30.031Z,1.23
2022-11-15T13:24:21.720Z,1.57
2022-11-15T13:29:21.137Z,1.80
2022-11-15T13:34:50.612Z,1.30
2022-11-15T13:39:41.167Z,1.80
2022-11-15T13:44:34.186Z,1.77
2022-11-15T13:49:30.984Z,2.40
2022-11-15T13:54:28.720Z,1.90
2022-11-15T13:59:27.855Z,1.83
2022-11-15T14:04:22.838Z,1.87
2022-11-15T14:09:14.473Z,2.03
2022-11-15T14:14:09.064Z,1.80
2022-11-15T14:19:00.789Z,1.97
2022-11-15T14:23:52.657Z,1.70
2022-11-15T14:28:44.290Z,1.90
2022-11-15T14:33:39.900Z,1.60
2022-11-15T14:38:31.904Z,1.77
2022-11-15T14:43:24.229Z,1.90
2022-11-15T14:48:15.803Z,1.70
2022-11-15T14:53:07.908Z,2.07
2022-11-15T14:58:00.137Z,1.97
2022-11-15T15:02:54.782Z,1.53
2022-11-15T15:07:47.490Z,1.50
2022-11-15T15:12:39.632Z,1.60
2022-11-15T15:17:31.241Z,1.53
2022-11-15T15:22:23.498Z,1.33
2022-11-15T15:27:15.205Z,1.30
2022-11-15T15:32:07.134Z,1.60
2022-11-15T15:37:25.089Z,1.20
2022-11-15T15:42:16.770Z,1.33
2022-11-15T15:47:21.004Z,1.40
2022-11-15T15:52:12.658Z,1.93
2022-11-15T15:57:04.661Z,1.80
2022-11-15T16:01:56.242Z,1.50
2022-11-15T16:06:47.951Z,1.70
2022-11-15T16:11:39.686Z,1.60
2022-11-15T16:16:31.391Z,1.50
2022-11-15T16:21:23.070Z,1.70
2022-11-15T16:26:24.901Z,1.80
2022-11-15T16:31:19.144Z,1.60
2022-11-15T16:36:19.178Z,1.80
2022-11-15T16:41:10.797Z,1.50
2022-11-15T16:46:14.566Z,1.50
2022-11-15T16:51:06.529Z,1.80
2022-11-15T16:55:58.313Z,1.70
2022-11-15T17:00:57.883Z,1.70
2022-11-15T17:05:50.553Z,1.87
2022-11-15T17:10:42.287Z,2.10
2022-11-15T17:15:33.990Z,2.00
2022-11-15T17:20:26.116Z,1.90
2022-11-15T17:25:17.737Z,2.00
2022-11-15T17:30:11.979Z,2.23
2022-11-15T17:35:04.328Z,2.03
2022-11-15T17:39:56.042Z,2.30
2022-11-15T17:44:47.787Z,1.90
2022-11-15T17:49:40.772Z,2.40
2022-11-15T17:54:32.671Z,1.70
2022-11-15T17:59:24.303Z,2.10
2022-11-15T18:04:16.024Z,2.40
2022-11-15T18:09:08.474Z,2.30
2022-11-15T18:14:02.965Z,2.80
2022-11-15T18:18:55.194Z,2.67
2022-11-15T18:23:47.650Z,2.80
2022-11-15T18:28:43.390Z,2.50
2022-11-15T18:33:35.645Z,2.70
2022-11-15T18:38:30.660Z,2.90
2022-11-15T18:43:22.441Z,2.60
2022-11-15T18:48:14.072Z,2.80
2022-11-15T18:53:05.715Z,3.10
2022-11-15T18:57:57.307Z,3.40
2022-11-15T19:02:49.128Z,3.40
2022-11-15T19:07:40.949Z,3.97
2022-11-15T19:12:32.595Z,3.27
2022-11-15T19:17:24.191Z,3.63
2022-11-15T19:22:15.801Z,3.30
2022-11-15T19:27:07.386Z,3.70
2022-11-15T19:31:59.048Z,4.20
2022-11-15T19:36:51.144Z,4.40
2022-11-15T19:41:44.124Z,4.57
2022-11-15T19:46:36.332Z,4.37
2022-11-15T19:51:30.727Z,4.50
2022-11-15T19:56:23.089Z,4.40
2022-11-15T20:01:18.132Z,4.60
2022-11-15T20:06:12.291Z,4.90
2022-11-15T20:11:05.741Z,4.67
2022-11-15T20:15:58.268Z,4.03
2022-11-15T20:20:50.506Z,4.67
2022-11-15T20:25:46.631Z,4.23
2022-11-15T20:30:38.318Z,5.00
2022-11-15T20:35:30.655Z,4.63
2022-11-15T20:40:22.294Z,5.10
2022-11-15T20:45:13.971Z,4.77
2022-11-15T20:50:35.261Z,5.00
2022-11-15T20:55:18.613Z,5.40
2022-11-15T21:00:10.872Z,5.33
2022-11-15T21:05:02.762Z,4.87
2022-11-15T21:10:12.835Z,5.10
2022-11-15T21:15:04.996Z,5.33
2022-11-15T21:19:56.573Z,5.10
2022-11-15T21:24:48.137Z,5.30
2022-11-15T21:29:39.815Z,5.10
2022-11-15T21:34:31.418Z,5.50
2022-11-15T21:39:23.084Z,4.40
2022-11-15T21:44:14.765Z,5.17
2022-11-15T21:49:07.555Z,5.30
2022-11-15T21:53:59.421Z,4.33
2022-11-15T21:58:51.450Z,4.70
2022-11-15T22:03:43.250Z,3.80
2022-11-15T22:08:35.505Z,3.90
2022-11-15T22:13:27.443Z,4.20
2022-11-15T22:18:23.600Z,3.50
2022-11-15T22:23:17.976Z,4.00
2022-11-15T22:28:09.688Z,3.77
2022-11-15T22:33:01.404Z,4.17
2022-11-15T22:37:53.111Z,3.87
2022-11-15T22:42:44.811Z,3.80
2022-11-15T22:47:36.532Z,3.40
2022-11-15T22:52:28.152Z,3.47
2022-11-15T22:57:19.836Z,3.40
2022-11-15T23:02:11.537Z,3.50
2022-11-15T23:07:03.271Z,3.60
2022-11-15T23:12:15.076Z,3.20
2022-11-15T23:17:07.041Z,3.57
2022-11-15T23:22:17.220Z,3.10
2022-11-15T23:27:09.163Z,3.87
2022-11-15T23:32:19.301Z,3.53
2022-11-15T23:37:13.405Z,3.63
2022-11-15T23:42:09.023Z,3.30
2022-11-15T23:47:01.216Z,3.30
2022-11-15T23:51:52.866Z,3.77
2022-11-15T23:56:44.511Z,3.50
